sensor_id;sensor_type;location;lat;lon;timestamp;temperature;humidity
42097;DHT22;27754;45.414;11.084;2023-02-15T00:02:01;4.70;81.40
42097;DHT22;27754;45.414;11.084;2023-02-15T00:04:28;4.80;81.30
42097;DHT22;27754;45.414;11.084;2023-02-15T00:07:14;4.80;80.90
42097;DHT22;27754;45.414;11.084;2023-02-15T00:09:42;4.80;80.60
42097;DHT22;27754;45.414;11.084;2023-02-15T00:12:11;4.80;79.60
42097;DHT22;27754;45.414;11.084;2023-02-15T00:14:38;4.60;79.80
42097;DHT22;27754;45.414;11.084;2023-02-15T00:17:05;4.60;80.00
42097;DHT22;27754;45.414;11.084;2023-02-15T00:19:32;4.60;79.80
42097;DHT22;27754;45.414;11.084;2023-02-15T00:21:59;4.50;80.10
42097;DHT22;27754;45.414;11.084;2023-02-15T00:24:26;4.50;80.20
42097;DHT22;27754;45.414;11.084;2023-02-15T00:26:53;4.40;80.60
42097;DHT22;27754;45.414;11.084;2023-02-15T00:29:20;4.40;80.60
42097;DHT22;27754;45.414;11.084;2023-02-15T00:31:48;4.40;80.50
42097;DHT22;27754;45.414;11.084;2023-02-15T00:34:23;4.40;80.80
42097;DHT22;27754;45.414;11.084;2023-02-15T00:36:51;4.40;80.50
42097;DHT22;27754;45.414;11.084;2023-02-15T00:39:18;4.40;80.30
42097;DHT22;27754;45.414;11.084;2023-02-15T00:41:46;4.40;80.20
42097;DHT22;27754;45.414;11.084;2023-02-15T00:44:14;4.40;80.60
42097;DHT22;27754;45.414;11.084;2023-02-15T00:46:41;4.40;81.00
42097;DHT22;27754;45.414;11.084;2023-02-15T00:49:09;4.50;81.40
42097;DHT22;27754;45.414;11.084;2023-02-15T00:51:37;4.50;81.30
42097;DHT22;27754;45.414;11.084;2023-02-15T00:54:05;4.60;81.00
42097;DHT22;27754;45.414;11.084;2023-02-15T00:56:32;4.60;80.80
42097;DHT22;27754;45.414;11.084;2023-02-15T00:58:59;4.60;80.90
42097;DHT22;27754;45.414;11.084;2023-02-15T01:01:26;4.60;80.80
42097;DHT22;27754;45.414;11.084;2023-02-15T01:03:53;4.40;81.40
42097;DHT22;27754;45.414;11.084;2023-02-15T01:06:20;4.30;81.90
42097;DHT22;27754;45.414;11.084;2023-02-15T01:08:47;4.30;82.00
42097;DHT22;27754;45.414;11.084;2023-02-15T01:11:18;4.30;81.90
42097;DHT22;27754;45.414;11.084;2023-02-15T01:13:53;4.30;81.70
42097;DHT22;27754;45.414;11.084;2023-02-15T01:16:21;4.30;81.70
42097;DHT22;27754;45.414;11.084;2023-02-15T01:18:48;4.30;82.00
42097;DHT22;27754;45.414;11.084;2023-02-15T01:21:18;4.30;82.00
42097;DHT22;27754;45.414;11.084;2023-02-15T01:23:46;4.30;82.10
42097;DHT22;27754;45.414;11.084;2023-02-15T01:26:14;4.20;82.00
42097;DHT22;27754;45.414;11.084;2023-02-15T01:28:43;4.20;82.10
42097;DHT22;27754;45.414;11.084;2023-02-15T01:31:20;4.10;82.20
42097;DHT22;27754;45.414;11.084;2023-02-15T01:33:48;4.10;82.70
42097;DHT22;27754;45.414;11.084;2023-02-15T01:36:15;4.10;82.80
42097;DHT22;27754;45.414;11.084;2023-02-15T01:38:44;4.00;82.90
42097;DHT22;27754;45.414;11.084;2023-02-15T01:41:11;4.00;83.00
42097;DHT22;27754;45.414;11.084;2023-02-15T01:43:58;4.00;83.10
42097;DHT22;27754;45.414;11.084;2023-02-15T01:46:39;4.00;82.50
42097;DHT22;27754;45.414;11.084;2023-02-15T01:49:13;3.90;82.40
42097;DHT22;27754;45.414;11.084;2023-02-15T01:51:42;3.90;83.20
42097;DHT22;27754;45.414;11.084;2023-02-15T01:54:19;3.80;83.20
42097;DHT22;27754;45.414;11.084;2023-02-15T01:56:52;3.70;83.50
42097;DHT22;27754;45.414;11.084;2023-02-15T01:59:22;3.60;83.40
42097;DHT22;27754;45.414;11.084;2023-02-15T02:01:52;3.50;83.10
42097;DHT22;27754;45.414;11.084;2023-02-15T02:04:40;3.60;83.70
42097;DHT22;27754;45.414;11.084;2023-02-15T02:07:09;3.50;83.10
42097;DHT22;27754;45.414;11.084;2023-02-15T02:09:37;3.40;82.90
42097;DHT22;27754;45.414;11.084;2023-02-15T02:12:05;3.40;82.90
42097;DHT22;27754;45.414;11.084;2023-02-15T02:14:32;3.40;84.50
42097;DHT22;27754;45.414;11.084;2023-02-15T02:17:41;3.40;83.60
42097;DHT22;27754;45.414;11.084;2023-02-15T02:20:30;3.10;81.30
42097;DHT22;27754;45.414;11.084;2023-02-15T02:34:31;3.50;82.70
42097;DHT22;27754;45.414;11.084;2023-02-15T02:37:19;3.50;83.50
42097;DHT22;27754;45.414;11.084;2023-02-15T02:40:51;3.50;84.10
42097;DHT22;27754;45.414;11.084;2023-02-15T02:42:59;3.40;84.10
42097;DHT22;27754;45.414;11.084;2023-02-15T02:45:39;3.50;84.30
42097;DHT22;27754;45.414;11.084;2023-02-15T02:48:15;3.70;84.20
42097;DHT22;27754;45.414;11.084;2023-02-15T02:50:43;3.70;84.00
42097;DHT22;27754;45.414;11.084;2023-02-15T02:53:10;3.70;84.00
42097;DHT22;27754;45.414;11.084;2023-02-15T02:55:47;3.60;84.10
42097;DHT22;27754;45.414;11.084;2023-02-15T03:00:59;3.60;85.10
42097;DHT22;27754;45.414;11.084;2023-02-15T03:03:41;3.60;85.40
42097;DHT22;27754;45.414;11.084;2023-02-15T03:06:25;3.60;85.60
42097;DHT22;27754;45.414;11.084;2023-02-15T03:09:09;3.60;85.40
42097;DHT22;27754;45.414;11.084;2023-02-15T03:11:43;3.50;85.60
42097;DHT22;27754;45.414;11.084;2023-02-15T03:14:13;3.60;85.80
42097;DHT22;27754;45.414;11.084;2023-02-15T03:16:43;3.60;85.70
42097;DHT22;27754;45.414;11.084;2023-02-15T03:19:15;3.50;85.00
42097;DHT22;27754;45.414;11.084;2023-02-15T03:21:51;3.40;85.30
42097;DHT22;27754;45.414;11.084;2023-02-15T03:24:41;3.50;85.50
42097;DHT22;27754;45.414;11.084;2023-02-15T03:27:19;3.60;85.60
42097;DHT22;27754;45.414;11.084;2023-02-15T03:29:51;3.70;85.30
42097;DHT22;27754;45.414;11.084;2023-02-15T03:32:20;3.70;84.70
42097;DHT22;27754;45.414;11.084;2023-02-15T03:34:48;3.80;84.20
42097;DHT22;27754;45.414;11.084;2023-02-15T03:45:58;3.80;82.90
42097;DHT22;27754;45.414;11.084;2023-02-15T03:48:43;3.80;83.00
42097;DHT22;27754;45.414;11.084;2023-02-15T03:51:17;3.90;82.80
42097;DHT22;27754;45.414;11.084;2023-02-15T03:54:03;3.90;82.20
42097;DHT22;27754;45.414;11.084;2023-02-15T03:56:34;3.80;82.40
42097;DHT22;27754;45.414;11.084;2023-02-15T03:59:02;3.90;82.60
42097;DHT22;27754;45.414;11.084;2023-02-15T04:04:33;3.90;82.10
42097;DHT22;27754;45.414;11.084;2023-02-15T04:07:02;3.90;81.90
42097;DHT22;27754;45.414;11.084;2023-02-15T04:09:29;3.90;82.00
42097;DHT22;27754;45.414;11.084;2023-02-15T04:12:14;3.90;81.70
42097;DHT22;27754;45.414;11.084;2023-02-15T04:14:41;3.90;81.30
42097;DHT22;27754;45.414;11.084;2023-02-15T04:17:27;4.00;81.30
42097;DHT22;27754;45.414;11.084;2023-02-15T04:19:55;4.00;81.30
42097;DHT22;27754;45.414;11.084;2023-02-15T04:22:40;4.00;81.10
42097;DHT22;27754;45.414;11.084;2023-02-15T04:25:26;4.00;81.30
42097;DHT22;27754;45.414;11.084;2023-02-15T04:27:54;4.00;81.10
42097;DHT22;27754;45.414;11.084;2023-02-15T04:30:24;4.00;81.10
42097;DHT22;27754;45.414;11.084;2023-02-15T04:32:52;3.90;81.20
42097;DHT22;27754;45.414;11.084;2023-02-15T04:35:20;3.90;81.30
42097;DHT22;27754;45.414;11.084;2023-02-15T04:37:47;3.80;81.40
42097;DHT22;27754;45.414;11.084;2023-02-15T04:40:15;3.70;81.40
42097;DHT22;27754;45.414;11.084;2023-02-15T04:42:47;3.60;81.70
42097;DHT22;27754;45.414;11.084;2023-02-15T04:45:16;3.60;81.90
42097;DHT22;27754;45.414;11.084;2023-02-15T04:47:43;3.50;82.00
42097;DHT22;27754;45.414;11.084;2023-02-15T04:50:11;3.50;82.40
42097;DHT22;27754;45.414;11.084;2023-02-15T04:52:38;3.50;82.70
42097;DHT22;27754;45.414;11.084;2023-02-15T04:55:05;3.30;82.70
42097;DHT22;27754;45.414;11.084;2023-02-15T04:57:32;3.30;82.70
42097;DHT22;27754;45.414;11.084;2023-02-15T04:59:59;3.20;82.80
42097;DHT22;27754;45.414;11.084;2023-02-15T05:02:27;3.10;82.90
42097;DHT22;27754;45.414;11.084;2023-02-15T05:04:54;3.10;83.10
42097;DHT22;27754;45.414;11.084;2023-02-15T05:07:21;3.10;83.10
42097;DHT22;27754;45.414;11.084;2023-02-15T05:09:48;3.00;83.10
42097;DHT22;27754;45.414;11.084;2023-02-15T05:12:15;3.00;83.50
42097;DHT22;27754;45.414;11.084;2023-02-15T05:14:42;3.00;83.20
42097;DHT22;27754;45.414;11.084;2023-02-15T05:17:09;2.90;83.50
42097;DHT22;27754;45.414;11.084;2023-02-15T05:19:36;2.90;84.10
42097;DHT22;27754;45.414;11.084;2023-02-15T05:22:03;2.90;84.10
42097;DHT22;27754;45.414;11.084;2023-02-15T05:24:30;2.90;84.20
42097;DHT22;27754;45.414;11.084;2023-02-15T05:27:15;2.90;84.40
42097;DHT22;27754;45.414;11.084;2023-02-15T05:30:01;2.90;84.40
42097;DHT22;27754;45.414;11.084;2023-02-15T05:32:28;2.90;84.50
42097;DHT22;27754;45.414;11.084;2023-02-15T05:34:55;2.90;84.50
42097;DHT22;27754;45.414;11.084;2023-02-15T05:37:22;2.90;84.40
42097;DHT22;27754;45.414;11.084;2023-02-15T05:39:49;2.90;84.60
42097;DHT22;27754;45.414;11.084;2023-02-15T05:42:16;2.90;84.70
42097;DHT22;27754;45.414;11.084;2023-02-15T05:44:43;2.90;84.50
42097;DHT22;27754;45.414;11.084;2023-02-15T05:47:10;2.90;84.30
42097;DHT22;27754;45.414;11.084;2023-02-15T05:49:37;2.90;84.30
42097;DHT22;27754;45.414;11.084;2023-02-15T05:52:04;2.90;84.40
42097;DHT22;27754;45.414;11.084;2023-02-15T05:54:31;3.00;84.70
42097;DHT22;27754;45.414;11.084;2023-02-15T05:56:58;3.00;84.50
42097;DHT22;27754;45.414;11.084;2023-02-15T05:59:25;3.10;84.20
42097;DHT22;27754;45.414;11.084;2023-02-15T06:01:52;3.20;84.00
42097;DHT22;27754;45.414;11.084;2023-02-15T06:04:19;3.20;83.90
42097;DHT22;27754;45.414;11.084;2023-02-15T06:06:46;3.30;83.80
42097;DHT22;27754;45.414;11.084;2023-02-15T06:09:13;3.30;83.70
42097;DHT22;27754;45.414;11.084;2023-02-15T06:11:41;3.30;83.70
42097;DHT22;27754;45.414;11.084;2023-02-15T06:14:08;3.30;83.70
42097;DHT22;27754;45.414;11.084;2023-02-15T06:16:35;3.30;83.70
42097;DHT22;27754;45.414;11.084;2023-02-15T06:19:02;3.40;83.60
42097;DHT22;27754;45.414;11.084;2023-02-15T06:21:30;3.40;83.70
42097;DHT22;27754;45.414;11.084;2023-02-15T06:23:57;3.40;83.90
42097;DHT22;27754;45.414;11.084;2023-02-15T06:26:24;3.40;83.80
42097;DHT22;27754;45.414;11.084;2023-02-15T06:28:51;3.40;83.80
42097;DHT22;27754;45.414;11.084;2023-02-15T06:31:18;3.40;83.80
42097;DHT22;27754;45.414;11.084;2023-02-15T06:33:45;3.40;84.10
42097;DHT22;27754;45.414;11.084;2023-02-15T06:36:12;3.40;83.80
42097;DHT22;27754;45.414;11.084;2023-02-15T06:38:39;3.50;83.70
42097;DHT22;27754;45.414;11.084;2023-02-15T06:41:06;3.40;83.80
42097;DHT22;27754;45.414;11.084;2023-02-15T06:43:33;3.50;83.60
42097;DHT22;27754;45.414;11.084;2023-02-15T06:46:01;3.60;83.60
42097;DHT22;27754;45.414;11.084;2023-02-15T06:48:28;3.70;83.30
42097;DHT22;27754;45.414;11.084;2023-02-15T06:50:55;3.80;83.10
42097;DHT22;27754;45.414;11.084;2023-02-15T06:53:22;3.80;82.60
42097;DHT22;27754;45.414;11.084;2023-02-15T06:55:49;3.80;82.40
42097;DHT22;27754;45.414;11.084;2023-02-15T06:58:16;3.90;82.20
42097;DHT22;27754;45.414;11.084;2023-02-15T07:00:43;3.80;82.30
42097;DHT22;27754;45.414;11.084;2023-02-15T07:03:13;3.80;82.60
42097;DHT22;27754;45.414;11.084;2023-02-15T07:05:41;3.80;82.80
42097;DHT22;27754;45.414;11.084;2023-02-15T07:08:08;3.70;82.80
42097;DHT22;27754;45.414;11.084;2023-02-15T07:10:35;3.70;83.00
42097;DHT22;27754;45.414;11.084;2023-02-15T07:13:02;3.70;83.50
42097;DHT22;27754;45.414;11.084;2023-02-15T07:15:29;3.70;83.70
42097;DHT22;27754;45.414;11.084;2023-02-15T07:17:57;3.80;83.40
42097;DHT22;27754;45.414;11.084;2023-02-15T07:20:25;3.90;83.00
42097;DHT22;27754;45.414;11.084;2023-02-15T07:22:52;4.10;82.60
42097;DHT22;27754;45.414;11.084;2023-02-15T07:25:19;4.30;82.30
42097;DHT22;27754;45.414;11.084;2023-02-15T07:27:46;4.40;81.90
42097;DHT22;27754;45.414;11.084;2023-02-15T07:30:16;4.50;81.50
42097;DHT22;27754;45.414;11.084;2023-02-15T07:32:44;4.60;81.20
42097;DHT22;27754;45.414;11.084;2023-02-15T07:35:32;4.80;81.10
42097;DHT22;27754;45.414;11.084;2023-02-15T07:38:00;4.90;81.20
42097;DHT22;27754;45.414;11.084;2023-02-15T07:40:27;5.10;80.70
42097;DHT22;27754;45.414;11.084;2023-02-15T07:42:57;5.30;80.60
42097;DHT22;27754;45.414;11.084;2023-02-15T07:45:24;5.50;80.30
42097;DHT22;27754;45.414;11.084;2023-02-15T07:47:51;5.70;79.40
42097;DHT22;27754;45.414;11.084;2023-02-15T07:50:18;5.90;78.90
42097;DHT22;27754;45.414;11.084;2023-02-15T07:52:44;6.10;78.20
42097;DHT22;27754;45.414;11.084;2023-02-15T07:55:11;6.20;78.40
42097;DHT22;27754;45.414;11.084;2023-02-15T07:57:47;6.40;77.60
42097;DHT22;27754;45.414;11.084;2023-02-15T08:00:17;6.50;77.60
42097;DHT22;27754;45.414;11.084;2023-02-15T08:02:54;6.60;77.50
42097;DHT22;27754;45.414;11.084;2023-02-15T08:05:42;6.70;77.50
42097;DHT22;27754;45.414;11.084;2023-02-15T08:08:11;6.80;77.50
42097;DHT22;27754;45.414;11.084;2023-02-15T08:13:59;6.90;77.50
42097;DHT22;27754;45.414;11.084;2023-02-15T08:16:37;7.00;76.90
42097;DHT22;27754;45.414;11.084;2023-02-15T08:21:39;7.00;77.00
42097;DHT22;27754;45.414;11.084;2023-02-15T08:24:08;7.20;76.90
42097;DHT22;27754;45.414;11.084;2023-02-15T08:26:35;7.30;74.80
42097;DHT22;27754;45.414;11.084;2023-02-15T08:29:03;7.40;73.70
42097;DHT22;27754;45.414;11.084;2023-02-15T08:31:30;7.40;73.70
42097;DHT22;27754;45.414;11.084;2023-02-15T08:33:57;7.60;73.70
42097;DHT22;27754;45.414;11.084;2023-02-15T08:36:26;7.70;73.70
42097;DHT22;27754;45.414;11.084;2023-02-15T08:38:57;7.70;73.80
42097;DHT22;27754;45.414;11.084;2023-02-15T08:41:27;7.80;73.90
42097;DHT22;27754;45.414;11.084;2023-02-15T08:43:55;7.90;74.80
42097;DHT22;27754;45.414;11.084;2023-02-15T08:46:24;7.90;75.00
42097;DHT22;27754;45.414;11.084;2023-02-15T08:48:53;8.10;75.10
42097;DHT22;27754;45.414;11.084;2023-02-15T08:51:25;8.10;75.00
42097;DHT22;27754;45.414;11.084;2023-02-15T08:53:54;8.20;74.90
42097;DHT22;27754;45.414;11.084;2023-02-15T08:56:24;8.20;74.90
42097;DHT22;27754;45.414;11.084;2023-02-15T08:58:54;8.30;74.70
42097;DHT22;27754;45.414;11.084;2023-02-15T09:01:25;8.40;74.60
42097;DHT22;27754;45.414;11.084;2023-02-15T09:03:57;8.40;74.10
42097;DHT22;27754;45.414;11.084;2023-02-15T09:06:24;8.50;74.00
42097;DHT22;27754;45.414;11.084;2023-02-15T09:08:52;8.60;73.80
42097;DHT22;27754;45.414;11.084;2023-02-15T09:11:27;8.60;74.10
42097;DHT22;27754;45.414;11.084;2023-02-15T09:14:03;8.70;74.10
42097;DHT22;27754;45.414;11.084;2023-02-15T09:16:33;8.80;74.20
42097;DHT22;27754;45.414;11.084;2023-02-15T09:19:01;8.90;74.00
42097;DHT22;27754;45.414;11.084;2023-02-15T09:21:32;8.90;74.00
42097;DHT22;27754;45.414;11.084;2023-02-15T09:24:04;8.90;73.50
42097;DHT22;27754;45.414;11.084;2023-02-15T09:26:34;9.00;73.60
42097;DHT22;27754;45.414;11.084;2023-02-15T09:29:01;9.10;73.40
42097;DHT22;27754;45.414;11.084;2023-02-15T09:31:37;9.10;72.80
42097;DHT22;27754;45.414;11.084;2023-02-15T09:34:04;9.20;72.60
42097;DHT22;27754;45.414;11.084;2023-02-15T09:36:34;9.30;72.60
42097;DHT22;27754;45.414;11.084;2023-02-15T09:39:15;9.40;72.40
42097;DHT22;27754;45.414;11.084;2023-02-15T09:47:30;9.50;71.90
42097;DHT22;27754;45.414;11.084;2023-02-15T09:55:48;9.90;71.00
42097;DHT22;27754;45.414;11.084;2023-02-15T09:58:39;9.90;69.90
42097;DHT22;27754;45.414;11.084;2023-02-15T10:09:52;10.40;69.00
42097;DHT22;27754;45.414;11.084;2023-02-15T10:12:36;10.40;69.40
42097;DHT22;27754;45.414;11.084;2023-02-15T10:18:44;10.60;67.40
42097;DHT22;27754;45.414;11.084;2023-02-15T10:26:48;10.80;65.30
42097;DHT22;27754;45.414;11.084;2023-02-15T10:29:35;10.80;65.40
42097;DHT22;27754;45.414;11.084;2023-02-15T10:32:24;10.80;65.00
42097;DHT22;27754;45.414;11.084;2023-02-15T10:35:03;10.90;64.70
42097;DHT22;27754;45.414;11.084;2023-02-15T10:37:56;10.90;65.20
42097;DHT22;27754;45.414;11.084;2023-02-15T10:40:49;11.10;65.30
42097;DHT22;27754;45.414;11.084;2023-02-15T10:49:07;11.40;63.00
42097;DHT22;27754;45.414;11.084;2023-02-15T11:02:36;11.60;62.60
42097;DHT22;27754;45.414;11.084;2023-02-15T11:07:55;11.80;62.30
42097;DHT22;27754;45.414;11.084;2023-02-15T11:10:36;11.90;61.60
42097;DHT22;27754;45.414;11.084;2023-02-15T11:13:10;11.90;61.60
42097;DHT22;27754;45.414;11.084;2023-02-15T11:18:54;11.90;61.70
42097;DHT22;27754;45.414;11.084;2023-02-15T11:23:54;12.10;62.60
42097;DHT22;27754;45.414;11.084;2023-02-15T11:26:34;12.10;62.80
42097;DHT22;27754;45.414;11.084;2023-02-15T11:29:21;12.30;62.70
42097;DHT22;27754;45.414;11.084;2023-02-15T11:32:13;12.30;62.60
42097;DHT22;27754;45.414;11.084;2023-02-15T11:34:51;12.30;62.40
42097;DHT22;27754;45.414;11.084;2023-02-15T11:37:29;12.30;61.80
42097;DHT22;27754;45.414;11.084;2023-02-15T11:39:57;12.40;62.00
42097;DHT22;27754;45.414;11.084;2023-02-15T11:42:25;12.40;62.00
42097;DHT22;27754;45.414;11.084;2023-02-15T11:45:02;12.40;62.00
42097;DHT22;27754;45.414;11.084;2023-02-15T11:47:31;12.50;61.80
42097;DHT22;27754;45.414;11.084;2023-02-15T11:49:59;12.60;62.00
42097;DHT22;27754;45.414;11.084;2023-02-15T11:52:26;12.70;61.80
42097;DHT22;27754;45.414;11.084;2023-02-15T11:54:54;12.80;61.80
42097;DHT22;27754;45.414;11.084;2023-02-15T11:57:31;12.90;61.60
42097;DHT22;27754;45.414;11.084;2023-02-15T12:02:46;12.90;61.50
42097;DHT22;27754;45.414;11.084;2023-02-15T12:05:20;12.90;61.00
42097;DHT22;27754;45.414;11.084;2023-02-15T12:07:54;13.00;60.50
42097;DHT22;27754;45.414;11.084;2023-02-15T12:10:28;13.00;60.00
42097;DHT22;27754;45.414;11.084;2023-02-15T12:13:15;13.00;59.90
42097;DHT22;27754;45.414;11.084;2023-02-15T12:15:48;13.10;59.90
42097;DHT22;27754;45.414;11.084;2023-02-15T12:18:38;13.10;60.40
42097;DHT22;27754;45.414;11.084;2023-02-15T12:24:16;13.20;60.90
42097;DHT22;27754;45.414;11.084;2023-02-15T12:26:44;13.30;60.10
42097;DHT22;27754;45.414;11.084;2023-02-15T12:29:25;13.30;60.10
42097;DHT22;27754;45.414;11.084;2023-02-15T12:31:54;13.40;60.20
42097;DHT22;27754;45.414;11.084;2023-02-15T12:34:26;13.40;60.50
42097;DHT22;27754;45.414;11.084;2023-02-15T12:36:55;13.40;60.10
42097;DHT22;27754;45.414;11.084;2023-02-15T12:39:29;13.40;59.40
42097;DHT22;27754;45.414;11.084;2023-02-15T12:42:04;13.50;59.30
42097;DHT22;27754;45.414;11.084;2023-02-15T12:44:33;13.60;58.80
42097;DHT22;27754;45.414;11.084;2023-02-15T12:49:35;13.70;57.00
42097;DHT22;27754;45.414;11.084;2023-02-15T12:54:49;13.80;57.50
42097;DHT22;27754;45.414;11.084;2023-02-15T13:00:03;13.90;57.60
42097;DHT22;27754;45.414;11.084;2023-02-15T13:02:40;14.00;57.40
42097;DHT22;27754;45.414;11.084;2023-02-15T13:05:37;14.10;57.40
42097;DHT22;27754;45.414;11.084;2023-02-15T13:08:21;14.20;56.80
42097;DHT22;27754;45.414;11.084;2023-02-15T13:11:09;14.20;56.10
42097;DHT22;27754;45.414;11.084;2023-02-15T13:14:00;14.30;56.10
42097;DHT22;27754;45.414;11.084;2023-02-15T13:19:09;14.40;56.10
42097;DHT22;27754;45.414;11.084;2023-02-15T13:21:41;14.40;55.60
42097;DHT22;27754;45.414;11.084;2023-02-15T13:24:25;14.30;55.60
42097;DHT22;27754;45.414;11.084;2023-02-15T13:26:56;14.40;54.70
42097;DHT22;27754;45.414;11.084;2023-02-15T13:29:52;14.40;54.40
42097;DHT22;27754;45.414;11.084;2023-02-15T13:34:58;14.40;53.30
42097;DHT22;27754;45.414;11.084;2023-02-15T13:46:28;14.60;53.20
42097;DHT22;27754;45.414;11.084;2023-02-15T14:08:04;14.80;53.80
42097;DHT22;27754;45.414;11.084;2023-02-15T14:10:46;14.90;53.90
42097;DHT22;27754;45.414;11.084;2023-02-15T14:22:00;14.90;54.00
42097;DHT22;27754;45.414;11.084;2023-02-15T14:29:56;14.90;54.00
42097;DHT22;27754;45.414;11.084;2023-02-15T14:32:34;14.90;54.10
42097;DHT22;27754;45.414;11.084;2023-02-15T14:35:05;14.80;54.20
42097;DHT22;27754;45.414;11.084;2023-02-15T14:40:31;14.80;54.30
42097;DHT22;27754;45.414;11.084;2023-02-15T14:47:48;14.70;54.30
42097;DHT22;27754;45.414;11.084;2023-02-15T14:49:41;14.60;54.30
42097;DHT22;27754;45.414;11.084;2023-02-15T14:52:10;14.60;54.10
42097;DHT22;27754;45.414;11.084;2023-02-15T14:59:54;14.50;54.80
42097;DHT22;27754;45.414;11.084;2023-02-15T15:02:39;14.40;54.80
42097;DHT22;27754;45.414;11.084;2023-02-15T15:07:48;14.40;54.80
42097;DHT22;27754;45.414;11.084;2023-02-15T15:12:51;14.50;54.30
42097;DHT22;27754;45.414;11.084;2023-02-15T15:18:07;14.40;54.60
42097;DHT22;27754;45.414;11.084;2023-02-15T15:20:42;14.40;54.80
42097;DHT22;27754;45.414;11.084;2023-02-15T15:26:20;14.30;55.70
42097;DHT22;27754;45.414;11.084;2023-02-15T15:48:30;13.90;57.20
42097;DHT22;27754;45.414;11.084;2023-02-15T15:51:00;13.90;56.70
42097;DHT22;27754;45.414;11.084;2023-02-15T15:53:31;14.00;57.10
42097;DHT22;27754;45.414;11.084;2023-02-15T15:56:04;13.90;57.30
42097;DHT22;27754;45.414;11.084;2023-02-15T15:58:33;13.80;57.80
42097;DHT22;27754;45.414;11.084;2023-02-15T16:01:10;13.80;58.00
42097;DHT22;27754;45.414;11.084;2023-02-15T16:03:51;13.70;58.10
42097;DHT22;27754;45.414;11.084;2023-02-15T16:06:33;13.70;58.40
42097;DHT22;27754;45.414;11.084;2023-02-15T16:11:52;13.50;58.90
42097;DHT22;27754;45.414;11.084;2023-02-15T16:14:39;13.50;59.30
42097;DHT22;27754;45.414;11.084;2023-02-15T16:17:14;13.30;59.30
42097;DHT22;27754;45.414;11.084;2023-02-15T16:19:44;13.30;59.70
42097;DHT22;27754;45.414;11.084;2023-02-15T16:22:25;13.20;60.00
42097;DHT22;27754;45.414;11.084;2023-02-15T16:25:12;13.10;60.40
42097;DHT22;27754;45.414;11.084;2023-02-15T16:27:45;13.00;60.70
42097;DHT22;27754;45.414;11.084;2023-02-15T16:30:28;12.90;61.20
42097;DHT22;27754;45.414;11.084;2023-02-15T16:33:16;12.80;61.60
42097;DHT22;27754;45.414;11.084;2023-02-15T16:35:57;12.70;61.70
42097;DHT22;27754;45.414;11.084;2023-02-15T16:41:24;12.40;62.90
42097;DHT22;27754;45.414;11.084;2023-02-15T16:43:53;12.30;63.20
42097;DHT22;27754;45.414;11.084;2023-02-15T16:49:05;12.20;63.30
42097;DHT22;27754;45.414;11.084;2023-02-15T16:51:34;12.10;63.30
42097;DHT22;27754;45.414;11.084;2023-02-15T16:54:07;11.90;63.50
42097;DHT22;27754;45.414;11.084;2023-02-15T16:56:35;11.90;64.10
42097;DHT22;27754;45.414;11.084;2023-02-15T16:59:03;11.80;64.20
42097;DHT22;27754;45.414;11.084;2023-02-15T17:01:32;11.80;64.40
42097;DHT22;27754;45.414;11.084;2023-02-15T17:04:27;11.80;64.50
42097;DHT22;27754;45.414;11.084;2023-02-15T17:09:25;11.80;64.00
42097;DHT22;27754;45.414;11.084;2023-02-15T17:11:52;11.80;64.20
42097;DHT22;27754;45.414;11.084;2023-02-15T17:14:21;11.80;63.90
42097;DHT22;27754;45.414;11.084;2023-02-15T17:16:59;11.90;64.00
42097;DHT22;27754;45.414;11.084;2023-02-15T17:22:01;11.70;64.20
42097;DHT22;27754;45.414;11.084;2023-02-15T17:24:41;11.60;64.60
42097;DHT22;27754;45.414;11.084;2023-02-15T17:29:51;11.30;65.00
42097;DHT22;27754;45.414;11.084;2023-02-15T17:32:22;11.30;65.30
42097;DHT22;27754;45.414;11.084;2023-02-15T17:35:04;11.20;65.30
42097;DHT22;27754;45.414;11.084;2023-02-15T17:40:26;11.00;66.10
42097;DHT22;27754;45.414;11.084;2023-02-15T17:42:54;11.00;66.30
42097;DHT22;27754;45.414;11.084;2023-02-15T17:45:23;11.00;65.90
42097;DHT22;27754;45.414;11.084;2023-02-15T17:47:51;10.90;66.20
42097;DHT22;27754;45.414;11.084;2023-02-15T17:50:24;10.80;66.50
42097;DHT22;27754;45.414;11.084;2023-02-15T17:52:53;10.80;66.80
42097;DHT22;27754;45.414;11.084;2023-02-15T17:55:21;10.70;67.00
42097;DHT22;27754;45.414;11.084;2023-02-15T17:58:03;10.70;66.80
42097;DHT22;27754;45.414;11.084;2023-02-15T18:00:31;10.60;66.80
42097;DHT22;27754;45.414;11.084;2023-02-15T18:03:19;10.60;66.80
42097;DHT22;27754;45.414;11.084;2023-02-15T18:06:05;10.50;66.80
42097;DHT22;27754;45.414;11.084;2023-02-15T18:08:51;10.40;67.10
42097;DHT22;27754;45.414;11.084;2023-02-15T18:11:38;10.30;67.60
42097;DHT22;27754;45.414;11.084;2023-02-15T18:14:07;10.10;68.40
42097;DHT22;27754;45.414;11.084;2023-02-15T18:16:37;10.00;68.50
42097;DHT22;27754;45.414;11.084;2023-02-15T18:19:12;9.90;68.80
42097;DHT22;27754;45.414;11.084;2023-02-15T18:21:39;9.90;69.40
42097;DHT22;27754;45.414;11.084;2023-02-15T18:24:17;9.80;69.10
42097;DHT22;27754;45.414;11.084;2023-02-15T18:26:45;9.80;68.80
42097;DHT22;27754;45.414;11.084;2023-02-15T18:29:12;9.60;69.10
42097;DHT22;27754;45.414;11.084;2023-02-15T18:31:40;9.60;69.30
42097;DHT22;27754;45.414;11.084;2023-02-15T18:34:24;9.50;69.30
42097;DHT22;27754;45.414;11.084;2023-02-15T18:36:52;9.40;69.70
42097;DHT22;27754;45.414;11.084;2023-02-15T18:39:37;9.30;70.00
42097;DHT22;27754;45.414;11.084;2023-02-15T18:42:27;9.20;70.10
42097;DHT22;27754;45.414;11.084;2023-02-15T18:44:58;9.20;70.60
42097;DHT22;27754;45.414;11.084;2023-02-15T18:47:25;9.20;70.70
42097;DHT22;27754;45.414;11.084;2023-02-15T18:49:54;9.20;70.90
42097;DHT22;27754;45.414;11.084;2023-02-15T18:52:23;9.20;70.70
42097;DHT22;27754;45.414;11.084;2023-02-15T18:55:00;9.20;70.80
42097;DHT22;27754;45.414;11.084;2023-02-15T18:57:28;9.20;70.70
42097;DHT22;27754;45.414;11.084;2023-02-15T18:59:55;9.30;70.30
42097;DHT22;27754;45.414;11.084;2023-02-15T19:02:22;9.20;70.40
42097;DHT22;27754;45.414;11.084;2023-02-15T19:04:49;9.30;70.20
42097;DHT22;27754;45.414;11.084;2023-02-15T19:07:24;9.20;70.10
42097;DHT22;27754;45.414;11.084;2023-02-15T19:09:58;9.20;70.00
42097;DHT22;27754;45.414;11.084;2023-02-15T19:12:29;9.20;69.90
42097;DHT22;27754;45.414;11.084;2023-02-15T19:14:56;9.10;70.20
42097;DHT22;27754;45.414;11.084;2023-02-15T19:17:23;9.10;70.30
42097;DHT22;27754;45.414;11.084;2023-02-15T19:19:51;9.10;70.40
42097;DHT22;27754;45.414;11.084;2023-02-15T19:22:28;9.00;70.80
42097;DHT22;27754;45.414;11.084;2023-02-15T19:24:58;9.00;71.00
42097;DHT22;27754;45.414;11.084;2023-02-15T19:27:36;8.90;70.90